Time;durP1;ratioP1;P1;durP2;ratioP2;P2;SDS_P1;SDS_P2;PMS_P1;PMS_P2;Temp;Humidity;BMP_temperature;BMP_pressure;BME280_temperature;BME280_humidity;BME280_pressure;Samples;Min_cycle;Max_cycle;Signal;HPM_P1;HPM_P2
2024/04/12 00:01:10;;;;;;;5.70;3.87;;;14.40;99.90;;;;;;5524862;26;20701;-73
2024/04/12 00:03:38;;;;;;;8.97;4.40;;;14.40;99.90;;;;;;5524903;25;20280;-73
2024/04/12 00:06:05;;;;;;;7.13;4.10;;;14.50;99.90;;;;;;5525821;26;20276;-74
2024/04/12 00:08:32;;;;;;;4.40;4.00;;;14.50;99.90;;;;;;5511720;25;20612;-73
2024/04/12 00:11:03;;;;;;;4.83;3.83;;;14.60;99.90;;;;;;5524698;25;20268;-73
2024/04/12 00:13:31;;;;;;;4.90;4.03;;;14.60;99.90;;;;;;5523482;25;20225;-73
2024/04/12 00:16:00;;;;;;;6.47;4.53;;;14.60;99.90;;;;;;5521780;26;20213;-74
2024/04/12 00:18:28;;;;;;;6.53;4.47;;;14.60;99.90;;;;;;5524518;25;20639;-73
2024/04/12 00:21:01;;;;;;;4.93;4.00;;;14.60;99.90;;;;;;5525945;25;20314;-73
2024/04/12 00:23:30;;;;;;;6.00;4.20;;;14.60;99.90;;;;;;5510341;25;20229;-73
2024/04/12 00:26:03;;;;;;;4.40;4.00;;;14.60;99.90;;;;;;5522339;26;20254;-73
2024/04/12 00:28:34;;;;;;;8.53;4.10;;;14.60;99.90;;;;;;5510445;25;20717;-73
2024/04/12 00:31:06;;;;;;;6.00;4.00;;;14.50;99.90;;;;;;5524137;25;20264;-73
2024/04/12 00:33:33;;;;;;;4.93;4.50;;;14.50;99.90;;;;;;5524682;25;20665;-73
2024/04/12 00:36:12;;;;;;;6.70;4.23;;;14.50;99.90;;;;;;5524634;25;20360;-73
2024/04/12 00:38:41;;;;;;;8.17;4.33;;;14.50;99.90;;;;;;5503100;25;20278;-73
2024/04/12 00:41:18;;;;;;;4.03;3.63;;;14.50;99.90;;;;;;5519428;25;20695;-73
2024/04/12 00:43:51;;;;;;;10.10;4.60;;;14.50;99.90;;;;;;5515420;25;20280;-73
2024/04/12 00:46:23;;;;;;;7.17;4.90;;;14.50;99.90;;;;;;5520270;25;20930;-73
2024/04/12 00:48:54;;;;;;;5.37;4.47;;;14.50;99.90;;;;;;5516405;25;20329;-73
2024/04/12 00:51:24;;;;;;;6.50;4.60;;;14.60;99.90;;;;;;5519568;25;20354;-73
2024/04/12 00:53:56;;;;;;;5.87;3.93;;;14.60;99.90;;;;;;5521773;25;20256;-73
2024/04/12 00:56:24;;;;;;;6.17;4.63;;;14.60;99.90;;;;;;5518231;26;20218;-72
2024/04/12 00:58:55;;;;;;;5.00;3.93;;;14.60;99.90;;;;;;5503469;26;20222;-73
2024/04/12 01:01:22;;;;;;;4.40;4.00;;;14.60;99.90;;;;;;5508455;25;20228;-72
2024/04/12 01:03:55;;;;;;;4.87;4.33;;;14.60;99.90;;;;;;5523494;25;20261;-74
2024/04/12 01:06:25;;;;;;;5.07;4.40;;;14.60;99.90;;;;;;5517531;25;20277;-73
2024/04/12 01:09:11;;;;;;;6.70;4.30;;;14.60;99.90;;;;;;5520495;25;20273;-73
2024/04/12 01:11:37;;;;;;;8.40;4.40;;;14.70;99.90;;;;;;5522938;25;20229;-73
2024/04/12 01:14:05;;;;;;;9.30;4.47;;;14.70;99.90;;;;;;5510591;25;20265;-73
2024/04/12 01:16:31;;;;;;;4.73;3.60;;;14.70;99.90;;;;;;5521815;25;20237;-73
2024/04/12 01:18:56;;;;;;;6.60;3.93;;;14.70;99.90;;;;;;5522719;25;20217;-72
2024/04/12 01:21:24;;;;;;;5.60;3.90;;;14.70;99.90;;;;;;5522014;25;20221;-73
2024/04/12 01:23:53;;;;;;;5.03;3.70;;;14.80;99.90;;;;;;5524633;25;20220;-73
2024/04/12 01:26:20;;;;;;;6.83;4.00;;;14.80;99.90;;;;;;5507561;25;20269;-73
2024/04/12 01:28:48;;;;;;;4.03;3.63;;;14.80;99.90;;;;;;5523186;25;20313;-73
2024/04/12 01:31:17;;;;;;;5.03;3.40;;;14.80;99.90;;;;;;5523114;25;20268;-73
2024/04/12 01:33:50;;;;;;;5.90;4.40;;;14.80;99.90;;;;;;5523135;25;20791;-73
2024/04/12 01:36:21;;;;;;;4.73;3.70;;;14.80;99.90;;;;;;5523549;25;20217;-73
2024/04/12 01:38:53;;;;;;;4.30;3.60;;;14.80;99.90;;;;;;5524407;26;20281;-73
2024/04/12 01:41:31;;;;;;;8.03;3.73;;;14.90;99.90;;;;;;5522926;25;20337;-73
2024/04/12 01:44:06;;;;;;;4.67;3.67;;;14.90;99.90;;;;;;5524806;25;20549;-73
2024/04/12 01:46:35;;;;;;;5.83;3.90;;;14.90;99.90;;;;;;5509459;25;20232;-72
2024/04/12 01:49:10;;;;;;;4.17;3.77;;;14.90;99.90;;;;;;5523230;26;20268;-72
2024/04/12 01:51:41;;;;;;;4.47;3.67;;;14.90;99.90;;;;;;5518946;25;20262;-72
2024/04/12 01:54:22;;;;;;;4.10;3.70;;;14.90;99.90;;;;;;5521724;25;20225;-73
2024/04/12 01:56:48;;;;;;;5.90;3.47;;;14.90;99.90;;;;;;5512913;26;20284;-73
2024/04/12 01:59:21;;;;;;;6.23;3.90;;;14.90;99.90;;;;;;5523621;25;20229;-73
2024/04/12 02:01:51;;;;;;;3.90;3.57;;;15.00;99.90;;;;;;5508287;25;20352;-74
2024/04/12 02:04:18;;;;;;;5.63;3.87;;;15.00;99.90;;;;;;5508780;25;20637;-73
2024/04/12 02:06:44;;;;;;;4.97;3.40;;;15.00;99.90;;;;;;5517345;26;20230;-73
2024/04/12 02:09:14;;;;;;;4.70;4.07;;;15.00;99.90;;;;;;5518614;26;20217;-73
2024/04/12 02:11:47;;;;;;;5.27;4.03;;;15.00;99.90;;;;;;5522994;26;20581;-73
2024/04/12 02:14:13;;;;;;;4.13;3.73;;;15.00;99.90;;;;;;5515787;26;20264;-74
2024/04/12 02:16:41;;;;;;;4.30;3.83;;;15.00;99.90;;;;;;5515556;25;20218;-73
2024/04/12 02:19:10;;;;;;;4.67;3.87;;;15.00;99.90;;;;;;5517777;26;20251;-73
2024/04/12 02:21:40;;;;;;;5.17;3.80;;;14.90;99.90;;;;;;5523606;26;20266;-73
2024/04/12 02:24:09;;;;;;;4.77;4.30;;;14.90;99.90;;;;;;5523175;25;20700;-73
2024/04/12 02:26:35;;;;;;;4.47;3.90;;;14.80;99.90;;;;;;5523119;25;20333;-73
2024/04/12 02:29:05;;;;;;;10.20;4.23;;;14.80;99.90;;;;;;5517709;25;20218;-73
2024/04/12 02:31:32;;;;;;;4.37;3.90;;;14.70;99.90;;;;;;5522937;25;20229;-74
2024/04/12 02:33:59;;;;;;;4.27;3.97;;;14.70;99.90;;;;;;5523899;26;20648;-73
2024/04/12 02:36:30;;;;;;;4.20;3.80;;;14.70;99.90;;;;;;5522688;25;20636;-73
2024/04/12 02:38:56;;;;;;;6.83;4.67;;;14.70;99.90;;;;;;5523527;25;20213;-73
2024/04/12 02:41:22;;;;;;;6.43;4.67;;;14.70;99.90;;;;;;5522058;25;20217;-73
2024/04/12 02:44:01;;;;;;;5.50;4.70;;;14.70;99.90;;;;;;5523554;26;20267;-73
2024/04/12 02:46:27;;;;;;;4.47;4.07;;;14.70;99.90;;;;;;5521850;25;20244;-74
2024/04/12 02:48:52;;;;;;;4.53;4.13;;;14.70;99.90;;;;;;5516826;25;20284;-73
2024/04/12 02:51:21;;;;;;;4.63;4.23;;;14.70;99.90;;;;;;5520755;26;20537;-73
2024/04/12 02:53:50;;;;;;;4.53;4.00;;;14.60;99.90;;;;;;5515275;25;20595;-73
2024/04/12 02:56:17;;;;;;;5.53;4.47;;;14.60;99.90;;;;;;5493207;25;20660;-73
2024/04/12 02:58:47;;;;;;;5.20;4.50;;;14.70;99.90;;;;;;5522164;25;20269;-73
2024/04/12 03:01:16;;;;;;;5.27;3.80;;;14.70;99.90;;;;;;5521899;25;20217;-73
2024/04/12 03:03:55;;;;;;;6.67;4.80;;;14.70;99.90;;;;;;5521639;25;20856;-73
2024/04/12 03:06:31;;;;;;;4.27;3.90;;;14.70;99.90;;;;;;5525281;25;20716;-73
2024/04/12 03:08:59;;;;;;;6.03;4.70;;;14.70;99.90;;;;;;5517771;25;20264;-73
2024/04/12 03:11:28;;;;;;;5.63;4.40;;;14.70;99.90;;;;;;5525363;25;20221;-73
2024/04/12 03:13:58;;;;;;;4.67;4.10;;;14.70;99.90;;;;;;5526713;25;20312;-73
2024/04/12 03:16:24;;;;;;;7.73;4.47;;;14.70;99.90;;;;;;5525446;25;20255;-73
2024/04/12 03:18:51;;;;;;;4.93;4.50;;;14.70;99.90;;;;;;5516830;26;20232;-72
2024/04/12 03:21:26;;;;;;;4.60;4.20;;;14.70;99.90;;;;;;5525278;25;20217;-73
2024/04/12 03:23:52;;;;;;;4.43;4.03;;;14.60;99.90;;;;;;5527088;26;20370;-73
2024/04/12 03:26:21;;;;;;;5.80;4.27;;;14.70;99.90;;;;;;5521726;26;20217;-73
2024/04/12 03:28:49;;;;;;;4.23;3.87;;;14.70;99.90;;;;;;5519209;25;20225;-73
2024/04/12 03:31:17;;;;;;;5.10;4.40;;;14.60;99.90;;;;;;5521826;25;20297;-74
2024/04/12 03:33:44;;;;;;;4.17;3.83;;;14.70;99.90;;;;;;5524168;25;20556;-74
2024/04/12 03:36:26;;;;;;;5.27;4.40;;;14.60;99.90;;;;;;5525237;25;20251;-73
2024/04/12 03:39:24;;;;;;;5.70;3.77;;;14.50;99.90;;;;;;5524550;25;20229;-74
2024/04/12 03:41:39;;;;;;;4.70;4.20;;;14.50;99.90;;;;;;5524955;25;20280;-74
2024/04/12 03:44:08;;;;;;;4.87;4.13;;;14.40;99.90;;;;;;5517749;26;20222;-73
2024/04/12 03:46:35;;;;;;;4.63;4.23;;;14.30;99.90;;;;;;5510367;26;20224;-73
2024/04/12 03:49:01;;;;;;;9.47;4.53;;;14.40;99.90;;;;;;5524207;25;20788;-73
2024/04/12 03:51:29;;;;;;;5.53;4.60;;;14.40;99.90;;;;;;5526296;25;20259;-74
2024/04/12 03:54:10;;;;;;;8.10;4.63;;;14.30;99.90;;;;;;5511088;25;20716;-73
2024/04/12 03:56:36;;;;;;;7.13;4.37;;;14.40;99.90;;;;;;5524833;26;20321;-74
2024/04/12 03:59:02;;;;;;;6.80;4.60;;;14.40;99.90;;;;;;5524998;25;20225;-73
2024/04/12 04:01:31;;;;;;;5.37;4.87;;;14.40;99.90;;;;;;5524828;25;20213;-73
2024/04/12 04:03:57;;;;;;;7.50;5.20;;;14.40;99.90;;;;;;5523699;25;20256;-73
2024/04/12 04:06:24;;;;;;;5.37;4.40;;;14.40;99.90;;;;;;5524806;25;20225;-74
2024/04/12 04:08:51;;;;;;;10.07;5.47;;;14.40;99.90;;;;;;5523597;26;20747;-73
2024/04/12 04:11:17;;;;;;;5.00;4.60;;;14.30;99.90;;;;;;5524982;25;20554;-73
2024/04/12 04:13:47;;;;;;;6.67;5.13;;;14.30;99.90;;;;;;5524872;26;20259;-73
2024/04/12 04:16:18;;;;;;;5.80;5.27;;;14.30;99.90;;;;;;5512247;25;20296;-73
2024/04/12 04:18:49;;;;;;;7.90;5.50;;;14.30;99.90;;;;;;5524475;25;20272;-73
2024/04/12 04:21:16;;;;;;;6.40;5.00;;;14.20;99.90;;;;;;5523683;25;20221;-73
2024/04/12 04:23:42;;;;;;;5.90;5.40;;;14.20;99.90;;;;;;5524828;25;20617;-73
2024/04/12 04:26:11;;;;;;;6.33;5.80;;;14.20;99.90;;;;;;5524765;26;20268;-73
2024/04/12 04:28:37;;;;;;;9.07;5.20;;;14.20;99.90;;;;;;5516958;26;20241;-73
2024/04/12 04:31:06;;;;;;;10.03;5.70;;;14.20;99.90;;;;;;5503292;25;20331;-73
2024/04/12 04:33:38;;;;;;;8.33;5.67;;;14.20;99.90;;;;;;5517352;25;20224;-74
2024/04/12 04:36:09;;;;;;;6.00;5.13;;;14.20;99.90;;;;;;5517638;25;20217;-74
2024/04/12 04:38:38;;;;;;;7.83;6.17;;;14.20;99.90;;;;;;5514021;25;20217;-73
2024/04/12 04:41:06;;;;;;;6.17;5.67;;;14.20;99.90;;;;;;5525124;25;20219;-73
2024/04/12 04:43:35;;;;;;;7.07;5.90;;;14.10;99.90;;;;;;5522761;25;20580;-74
2024/04/12 04:46:25;;;;;;;8.07;6.20;;;14.10;99.90;;;;;;5509388;26;20229;-73
2024/04/12 04:48:49;;;;;;;7.30;6.10;;;14.10;99.90;;;;;;5521942;26;20229;-74
2024/04/12 04:51:16;;;;;;;7.73;6.93;;;14.00;99.90;;;;;;5506764;25;20280;-73
2024/04/12 04:53:43;;;;;;;7.80;6.87;;;14.00;99.90;;;;;;5503665;26;20225;-73
2024/04/12 04:56:09;;;;;;;11.47;6.97;;;14.00;99.90;;;;;;5503327;26;20217;-73
2024/04/12 04:58:41;;;;;;;11.10;6.60;;;14.00;99.90;;;;;;5524354;26;20278;-73
2024/04/12 05:01:11;;;;;;;9.20;6.43;;;14.10;99.90;;;;;;5516559;25;20281;-73
2024/04/12 05:03:37;;;;;;;9.03;6.30;;;14.10;99.90;;;;;;5517456;25;20285;-73
2024/04/12 05:06:06;;;;;;;10.37;6.70;;;14.10;99.90;;;;;;5503088;25;20597;-73
2024/04/12 05:08:35;;;;;;;9.20;7.13;;;14.00;99.90;;;;;;5523465;25;20275;-74
2024/04/12 05:11:07;;;;;;;9.43;6.77;;;14.00;99.90;;;;;;5512413;25;20775;-73
2024/04/12 05:13:37;;;;;;;12.03;7.77;;;14.00;99.90;;;;;;5523112;25;20233;-74
2024/04/12 05:16:10;;;;;;;11.07;7.30;;;14.00;99.90;;;;;;5513284;26;20213;-73
2024/04/12 05:18:38;;;;;;;12.10;7.23;;;14.10;99.90;;;;;;5523436;25;20252;-73
2024/04/12 05:21:04;;;;;;;8.13;7.33;;;14.00;99.90;;;;;;5512000;25;20357;-73
2024/04/12 05:23:29;;;;;;;10.00;7.20;;;14.10;99.90;;;;;;5521708;25;20638;-73
2024/04/12 05:25:55;;;;;;;13.30;7.00;;;14.10;99.90;;;;;;5510949;25;20269;-73
2024/04/12 05:28:21;;;;;;;10.40;7.13;;;14.20;99.90;;;;;;5522269;25;20263;-73
2024/04/12 05:30:50;;;;;;;7.83;7.13;;;14.20;99.90;;;;;;5515791;25;20268;-73
2024/04/12 05:33:19;;;;;;;13.07;6.87;;;14.20;99.90;;;;;;5522900;25;20375;-73
2024/04/12 05:35:46;;;;;;;10.87;7.97;;;14.20;99.90;;;;;;5521530;25;20232;-74
2024/04/12 05:38:12;;;;;;;11.13;7.27;;;14.20;99.90;;;;;;5524697;25;20267;-73
2024/04/12 05:40:45;;;;;;;10.50;8.13;;;14.30;99.90;;;;;;5521489;25;20221;-73
2024/04/12 05:43:14;;;;;;;11.33;7.47;;;14.30;99.90;;;;;;5522317;25;20229;-74
2024/04/12 05:45:50;;;;;;;8.63;7.40;;;14.20;99.90;;;;;;5512383;25;20278;-73
2024/04/12 05:48:21;;;;;;;9.70;7.37;;;14.30;99.90;;;;;;5508562;25;20578;-74
2024/04/12 05:50:49;;;;;;;13.20;7.47;;;14.30;99.90;;;;;;5521911;25;20229;-73
2024/04/12 05:53:23;;;;;;;9.13;7.63;;;14.40;99.90;;;;;;5504849;26;20225;-74
2024/04/12 05:56:31;;;;;;;12.23;8.07;;;14.40;99.90;;;;;;5510063;25;20229;-73
2024/04/12 05:58:37;;;;;;;10.63;7.53;;;14.40;99.90;;;;;;5512149;25;20221;-74
2024/04/12 06:01:07;;;;;;;12.50;8.00;;;14.50;99.90;;;;;;5503248;25;20271;-73
2024/04/12 06:03:42;;;;;;;11.13;7.73;;;14.50;99.90;;;;;;5518320;26;20714;-73
2024/04/12 06:06:08;;;;;;;12.63;7.40;;;14.60;99.90;;;;;;5514755;26;20269;-74
2024/04/12 06:08:35;;;;;;;8.00;7.20;;;14.60;99.90;;;;;;5519277;25;20597;-73
2024/04/12 06:11:01;;;;;;;9.97;7.03;;;14.60;99.90;;;;;;5522618;25;20241;-73
2024/04/12 06:13:29;;;;;;;8.53;7.53;;;14.60;99.90;;;;;;5522067;25;20299;-74
2024/04/12 06:15:54;;;;;;;9.47;7.00;;;14.70;99.90;;;;;;5511646;25;20636;-74
2024/04/12 06:18:20;;;;;;;9.03;6.53;;;14.70;99.90;;;;;;5508681;25;20221;-74
2024/04/12 06:20:48;;;;;;;9.10;7.00;;;14.70;99.90;;;;;;5508229;25;20555;-74
2024/04/12 06:23:14;;;;;;;7.57;6.63;;;14.70;99.90;;;;;;5522189;26;20233;-73
2024/04/12 06:25:44;;;;;;;9.00;6.87;;;14.80;99.90;;;;;;5521916;25;20225;-73
2024/04/12 06:28:14;;;;;;;10.03;6.90;;;14.80;99.90;;;;;;5506606;26;20277;-74
2024/04/12 06:30:46;;;;;;;10.63;7.03;;;14.80;99.90;;;;;;5521066;25;20216;-73
2024/04/12 06:33:13;;;;;;;11.03;7.57;;;14.80;99.90;;;;;;5519847;25;20213;-73
2024/04/12 06:35:40;;;;;;;9.40;7.53;;;14.80;99.90;;;;;;5520273;26;20360;-73
2024/04/12 06:38:08;;;;;;;8.10;7.17;;;14.80;99.90;;;;;;5515240;25;20353;-74
2024/04/12 06:40:37;;;;;;;8.27;7.43;;;14.80;99.90;;;;;;5521065;25;20217;-73
2024/04/12 06:43:06;;;;;;;8.00;6.97;;;14.80;99.90;;;;;;5509478;25;20230;-74
2024/04/12 06:45:41;;;;;;;7.60;6.83;;;14.80;99.90;;;;;;5505192;25;20718;-74
2024/04/12 06:48:10;;;;;;;9.83;7.37;;;14.80;99.90;;;;;;5520219;26;20720;-74
2024/04/12 06:50:36;;;;;;;9.47;7.33;;;14.90;99.90;;;;;;5512936;26;20232;-74
2024/04/12 06:53:08;;;;;;;8.13;7.33;;;14.80;99.90;;;;;;5523002;25;20804;-72
2024/04/12 06:55:45;;;;;;;8.83;7.43;;;14.90;99.90;;;;;;5523160;26;20630;-73
2024/04/12 06:58:12;;;;;;;9.47;7.10;;;14.90;99.90;;;;;;5523005;25;20221;-73
2024/04/12 07:00:38;;;;;;;7.33;6.57;;;14.90;99.90;;;;;;5522405;25;20610;-71
2024/04/12 07:03:07;;;;;;;8.27;7.47;;;15.00;99.90;;;;;;5515284;25;20214;-72
2024/04/12 07:05:34;;;;;;;12.77;6.73;;;15.10;99.90;;;;;;5519837;25;20286;-73
2024/04/12 07:08:05;;;;;;;7.80;7.00;;;15.20;99.90;;;;;;5522550;25;20321;-73
2024/04/12 07:10:32;;;;;;;8.80;6.43;;;15.30;99.90;;;;;;5522180;25;20264;-71
2024/04/12 07:12:58;;;;;;;8.40;6.53;;;15.40;99.90;;;;;;5521679;25;20225;-72
2024/04/12 07:15:23;;;;;;;7.03;6.33;;;15.40;99.90;;;;;;5503854;26;20606;-71
2024/04/12 07:17:49;;;;;;;7.97;6.17;;;15.50;99.90;;;;;;5520218;26;20221;-74
2024/04/12 07:20:21;;;;;;;8.47;6.70;;;15.60;99.90;;;;;;5519832;25;20662;-73
2024/04/12 07:22:49;;;;;;;8.23;6.47;;;15.70;99.90;;;;;;5515254;26;20222;-72
2024/04/12 07:25:15;;;;;;;7.77;6.13;;;15.70;99.90;;;;;;5485854;26;20222;-72
2024/04/12 07:27:41;;;;;;;11.17;6.00;;;15.80;99.90;;;;;;5490644;26;20255;-72
2024/04/12 07:30:08;;;;;;;6.33;5.73;;;15.80;99.90;;;;;;5519964;26;20694;-72
2024/04/12 07:32:36;;;;;;;6.43;5.80;;;15.90;99.90;;;;;;5517568;26;20338;-73
2024/04/12 07:35:22;;;;;;;7.53;6.03;;;16.00;99.90;;;;;;5522502;25;20716;-73
2024/04/12 07:37:48;;;;;;;7.60;5.53;;;16.20;99.90;;;;;;5522160;25;20221;-72
2024/04/12 07:40:18;;;;;;;10.33;5.63;;;16.50;99.90;;;;;;5520967;26;20267;-72
2024/04/12 07:42:48;;;;;;;7.33;5.83;;;16.60;99.90;;;;;;5520632;25;20225;-72
2024/04/12 07:45:17;;;;;;;6.83;5.37;;;16.80;99.90;;;;;;5522405;26;20225;-72
2024/04/12 07:47:53;;;;;;;8.10;5.60;;;17.00;99.90;;;;;;5521277;25;20554;-73
2024/04/12 07:50:28;;;;;;;7.00;4.90;;;17.20;99.90;;;;;;5521676;25;20267;-72
2024/04/12 07:52:59;;;;;;;5.37;4.87;;;17.40;99.90;;;;;;5511203;26;20866;-71
2024/04/12 07:55:24;;;;;;;5.00;4.47;;;17.70;99.90;;;;;;5525351;25;20213;-72
2024/04/12 07:57:53;;;;;;;4.87;4.37;;;18.00;99.90;;;;;;5516316;26;20756;-72
2024/04/12 08:00:35;;;;;;;7.00;5.20;;;18.20;99.90;;;;;;5525418;25;20221;-72
2024/04/12 08:03:06;;;;;;;4.77;4.37;;;18.30;99.90;;;;;;5525685;25;20575;-72
2024/04/12 08:05:42;;;;;;;5.10;4.70;;;18.40;99.90;;;;;;5525362;25;20318;-73
2024/04/12 08:08:14;;;;;;;5.53;4.53;;;18.30;99.90;;;;;;5525342;26;20321;-73
2024/04/12 08:10:43;;;;;;;5.53;4.93;;;18.30;99.90;;;;;;5525312;25;20213;-76
2024/04/12 08:13:10;;;;;;;5.53;5.03;;;18.20;99.90;;;;;;5509847;25;20229;-75
2024/04/12 08:15:41;;;;;;;8.47;4.70;;;18.00;99.90;;;;;;5525122;25;20213;-76
2024/04/12 08:18:07;;;;;;;7.67;6.47;;;17.80;99.90;;;;;;5525446;25;20263;-76
2024/04/12 08:20:39;;;;;;;5.33;4.80;;;17.60;99.90;;;;;;5524951;25;20225;-75
2024/04/12 08:23:05;;;;;;;5.53;5.03;;;17.50;99.90;;;;;;5525666;26;20275;-74
2024/04/12 08:25:36;;;;;;;5.33;4.70;;;17.50;99.90;;;;;;5524154;25;20217;-74
2024/04/12 08:28:06;;;;;;;8.00;5.47;;;17.70;99.90;;;;;;5525475;25;20221;-74
2024/04/12 08:30:33;;;;;;;6.27;4.63;;;17.80;99.90;;;;;;5524733;25;20260;-75
2024/04/12 08:33:02;;;;;;;5.97;4.80;;;17.90;99.90;;;;;;5525280;26;20285;-72
2024/04/12 08:35:29;;;;;;;8.63;4.93;;;18.00;99.90;;;;;;5524832;25;20225;-73
2024/04/12 08:37:54;;;;;;;5.40;5.00;;;18.10;99.90;;;;;;5525364;25;20670;-74
2024/04/12 08:40:21;;;;;;;8.47;4.80;;;18.20;99.90;;;;;;5507426;26;20229;-75
2024/04/12 08:42:47;;;;;;;5.97;4.33;;;18.30;99.90;;;;;;5524841;25;20326;-75
2024/04/12 08:45:18;;;;;;;6.47;5.40;;;18.30;99.90;;;;;;5524934;25;20237;-74
2024/04/12 08:47:52;;;;;;;6.50;5.80;;;18.40;99.90;;;;;;5512929;25;20587;-75
2024/04/12 08:50:24;;;;;;;7.53;5.67;;;18.40;99.90;;;;;;5507943;25;20218;-73
2024/04/12 08:52:53;;;;;;;9.67;5.23;;;18.50;99.90;;;;;;5510159;25;20224;-74
2024/04/12 08:55:20;;;;;;;10.03;5.53;;;18.60;99.90;;;;;;5525251;26;20217;-74
2024/04/12 08:57:47;;;;;;;6.40;5.23;;;18.60;99.90;;;;;;5503241;26;20242;-77
2024/04/12 09:00:18;;;;;;;9.70;5.87;;;18.60;99.90;;;;;;5488230;26;20278;-72
2024/04/12 09:02:51;;;;;;;9.87;5.80;;;18.70;99.90;;;;;;5487753;26;20215;-75
2024/04/12 09:05:22;;;;;;;6.40;5.57;;;18.80;99.90;;;;;;5488672;26;20210;-72
2024/04/12 09:07:50;;;;;;;6.17;5.57;;;18.90;99.90;;;;;;5487638;26;20249;-73
2024/04/12 09:10:19;;;;;;;6.70;5.53;;;19.20;99.90;;;;;;5488232;26;20213;-73
2024/04/12 09:12:46;;;;;;;8.27;5.63;;;19.30;99.90;;;;;;5487891;26;20257;-73
2024/04/12 09:15:23;;;;;;;6.97;5.20;;;19.50;99.90;;;;;;5488647;26;20206;-74
2024/04/12 09:18:04;;;;;;;7.88;5.93;;;19.40;99.90;;;;;;5486951;26;20229;-71
2024/04/12 09:20:35;;;;;;;8.15;5.93;;;19.40;99.90;;;;;;5487551;26;20237;-72
2024/04/12 09:23:14;;;;;;;6.10;5.50;;;19.30;99.90;;;;;;5487968;26;20310;-75
2024/04/12 09:25:45;;;;;;;7.97;5.20;;;19.40;99.90;;;;;;5487982;26;20235;-71
2024/04/12 09:28:13;;;;;;;9.10;5.67;;;19.60;99.90;;;;;;5487686;26;20210;-74
2024/04/12 09:33:27;;;;;;;6.70;5.05;;;20.00;99.90;;;;;;5487498;26;20653;-74
2024/04/12 09:36:03;;;;;;;6.23;5.43;;;20.00;99.90;;;;;;5488227;26;20206;-75
2024/04/12 09:38:31;;;;;;;11.73;5.22;;;20.10;99.90;;;;;;5487702;26;20701;-73
2024/04/12 09:41:12;;;;;;;6.50;5.75;;;20.10;99.90;;;;;;5487385;26;20760;-75
2024/04/12 09:43:47;;;;;;;6.85;5.03;;;20.20;99.90;;;;;;5487083;26;20218;-73
2024/04/12 09:46:22;;;;;;;6.90;5.05;;;20.20;99.90;;;;;;5487882;26;20205;-74
2024/04/12 10:38:58;;;;;;;8.30;4.28;;;20.90;99.90;;;;;;5486785;26;20241;-74
2024/04/12 10:41:33;;;;;;;4.75;3.40;;;21.20;99.90;;;;;;5486915;26;20210;-74
2024/04/12 10:43:59;;;;;;;3.53;3.20;;;21.40;99.90;;;;;;5486701;26;20564;-74
2024/04/12 10:46:25;;;;;;;4.68;3.50;;;21.60;99.90;;;;;;5486989;26;20248;-74
2024/04/12 10:48:52;;;;;;;3.97;2.92;;;21.70;99.90;;;;;;5486182;26;20249;-74
2024/04/12 10:51:19;;;;;;;5.50;2.83;;;21.70;99.90;;;;;;5486392;26;20254;-73
2024/04/12 10:53:49;;;;;;;4.03;3.10;;;21.80;99.90;;;;;;5486472;26;20213;-74
2024/04/12 10:56:18;;;;;;;6.93;4.03;;;21.90;99.90;;;;;;5486557;26;20206;-73
2024/04/12 10:58:56;;;;;;;3.72;3.20;;;22.00;99.90;;;;;;5485895;26;20557;-74
2024/04/12 11:01:26;;;;;;;3.70;3.08;;;22.10;99.90;;;;;;5486877;26;20252;-74
2024/04/12 11:03:58;;;;;;;8.25;3.22;;;22.10;99.90;;;;;;5485941;26;20252;-75
2024/04/12 11:06:34;;;;;;;4.13;2.97;;;22.00;99.90;;;;;;5486461;26;20202;-73
2024/04/12 11:09:03;;;;;;;3.45;2.88;;;22.00;99.90;;;;;;5486045;26;20810;-74
2024/04/12 11:11:37;;;;;;;5.97;2.97;;;22.10;99.90;;;;;;5514184;26;20217;-74
2024/04/12 11:14:06;;;;;;;3.15;2.83;;;22.10;99.90;;;;;;5522804;25;20689;-73
2024/04/12 11:33:31;;;;;;;3.35;2.53;;;21.50;99.90;;;;;;5526900;25;20718;-76
2024/04/12 11:36:05;;;;;;;4.60;2.80;;;21.20;99.90;;;;;;5526161;25;20729;-72
2024/04/12 11:38:37;;;;;;;4.10;2.88;;;21.10;99.90;;;;;;5526419;25;20205;-73
2024/04/12 11:41:04;;;;;;;6.45;2.35;;;20.90;99.90;;;;;;5526045;25;20205;-72
2024/04/12 11:43:32;;;;;;;2.63;2.40;;;20.90;99.90;;;;;;5526489;26;20252;-75
2024/04/12 11:45:58;;;;;;;3.30;2.47;;;21.00;99.90;;;;;;5526518;25;20217;-74
2024/04/12 11:48:31;;;;;;;3.60;2.70;;;21.30;99.90;;;;;;5526444;25;20205;-74
2024/04/12 11:50:57;;;;;;;3.03;2.72;;;21.70;99.90;;;;;;5526298;25;20205;-74
2024/04/12 11:53:23;;;;;;;2.30;2.10;;;22.10;99.90;;;;;;5526441;26;20267;-75
2024/04/12 11:55:48;;;;;;;5.20;2.20;;;22.50;99.90;;;;;;5525899;25;20209;-73
2024/04/12 11:58:15;;;;;;;2.30;2.10;;;22.90;99.90;;;;;;5526010;25;20209;-72
2024/04/12 12:00:41;;;;;;;4.00;2.30;;;23.10;99.90;;;;;;5525753;25;20208;-75
2024/04/12 12:03:15;;;;;;;5.13;2.10;;;23.20;99.90;;;;;;5525940;25;20603;-75
2024/04/12 12:05:42;;;;;;;5.38;2.08;;;23.20;99.90;;;;;;5521704;25;20221;-76
2024/04/12 12:08:12;;;;;;;3.25;2.10;;;23.10;99.90;;;;;;5525782;26;20244;-74
2024/04/12 12:10:39;;;;;;;5.93;1.95;;;22.60;99.90;;;;;;5523071;25;20749;-74
2024/04/12 12:13:05;;;;;;;2.10;2.00;;;22.20;99.90;;;;;;5525955;26;20218;-74
2024/04/12 12:15:30;;;;;;;2.33;1.90;;;22.30;99.90;;;;;;5526466;25;20205;-74
2024/04/12 12:17:56;;;;;;;2.58;1.70;;;22.20;99.90;;;;;;5525615;25;20247;-74
2024/04/12 12:20:22;;;;;;;2.10;2.00;;;22.40;99.90;;;;;;5525019;25;20213;-74
2024/04/12 12:22:48;;;;;;;1.83;1.73;;;22.50;99.90;;;;;;5503480;25;20485;-75
2024/04/12 12:25:14;;;;;;;3.75;2.00;;;22.80;99.90;;;;;;5489327;26;20270;-75
2024/04/12 12:27:40;;;;;;;2.33;1.67;;;22.70;99.90;;;;;;5488791;26;20222;-75
2024/04/12 12:30:14;;;;;;;2.88;1.90;;;22.80;99.90;;;;;;5489080;26;20213;-74
2024/04/12 12:32:44;;;;;;;3.45;1.80;;;23.00;99.90;;;;;;5521510;25;20263;-76
2024/04/12 12:35:18;;;;;;;2.35;2.05;;;23.20;99.90;;;;;;5525541;25;20240;-73
2024/04/12 12:37:46;;;;;;;2.40;2.10;;;23.30;99.90;;;;;;5524368;25;20209;-75
2024/04/12 12:40:13;;;;;;;3.22;2.20;;;23.40;99.90;;;;;;5523216;25;20236;-75
2024/04/12 12:42:39;;;;;;;2.30;1.95;;;23.40;99.90;;;;;;5525301;25;20789;-73
2024/04/12 12:45:05;;;;;;;2.67;1.73;;;23.60;99.90;;;;;;5526318;25;20255;-74
2024/04/12 12:47:32;;;;;;;2.35;2.00;;;24.00;99.90;;;;;;5525550;26;20231;-76
2024/04/12 12:50:01;;;;;;;4.07;2.00;;;24.20;99.90;;;;;;5525248;26;20277;-76
2024/04/12 12:52:28;;;;;;;3.58;1.90;;;24.20;99.90;;;;;;5525423;25;20213;-77
2024/04/12 12:54:58;;;;;;;4.20;2.50;;;24.20;99.90;;;;;;5490095;26;20238;-77
2024/04/12 12:57:25;;;;;;;2.40;2.17;;;24.20;99.90;;;;;;5487520;26;20214;-75
2024/04/12 12:59:54;;;;;;;2.85;2.50;;;24.40;99.90;;;;;;5487987;26;20214;-74
2024/04/12 13:02:20;;;;;;;5.95;2.58;;;24.60;98.40;;;;;;5488300;26;20222;-72
2024/04/12 13:04:46;;;;;;;5.47;2.80;;;24.50;97.60;;;;;;5487798;26;20210;-76
2024/04/12 13:07:13;;;;;;;3.15;2.92;;;24.30;99.30;;;;;;5502945;26;20460;-76
2024/04/12 13:09:38;;;;;;;3.00;2.25;;;24.30;98.60;;;;;;5523264;25;20681;-75
2024/04/12 13:12:10;;;;;;;3.67;3.15;;;24.30;99.90;;;;;;5523365;25;20260;-73
2024/04/12 13:14:37;;;;;;;7.40;3.60;;;24.60;99.90;;;;;;5524592;25;20255;-75
2024/04/12 13:17:11;;;;;;;4.28;2.47;;;24.90;98.90;;;;;;5522245;25;20701;-76
2024/04/12 13:19:38;;;;;;;6.13;2.10;;;25.00;96.00;;;;;;5523349;25;20209;-77
2024/04/12 13:22:04;;;;;;;5.30;2.45;;;25.10;96.40;;;;;;5516317;25;20285;-77
2024/04/12 13:24:30;;;;;;;4.68;2.75;;;25.20;95.30;;;;;;5487605;26;20261;-76
2024/04/12 13:26:59;;;;;;;2.80;2.30;;;25.00;92.30;;;;;;5498865;26;20605;-76
2024/04/12 13:29:29;;;;;;;7.80;2.47;;;24.60;92.70;;;;;;5524512;26;20205;-74
2024/04/12 13:31:57;;;;;;;4.53;2.72;;;24.40;94.70;;;;;;5524826;25;20221;-75
2024/04/12 13:34:23;;;;;;;2.90;2.60;;;24.20;96.00;;;;;;5523840;26;20271;-75
2024/04/12 13:36:52;;;;;;;4.72;2.80;;;24.20;97.50;;;;;;5523975;25;20329;-75
2024/04/12 13:39:19;;;;;;;2.90;2.70;;;24.10;96.30;;;;;;5524363;26;20310;-74
2024/04/12 13:41:45;;;;;;;5.55;3.00;;;24.20;96.90;;;;;;5525096;25;20233;-75
2024/04/12 13:44:24;;;;;;;4.05;2.80;;;24.20;96.20;;;;;;5505866;25;20825;-75
2024/04/12 13:52:23;;;;;;;4.75;2.70;;;24.50;95.90;;;;;;5487461;26;20268;-75
2024/04/12 13:54:50;;;;;;;5.43;2.85;;;24.70;94.20;;;;;;5487348;26;20210;-71
2024/04/12 13:57:17;;;;;;;4.25;2.45;;;24.90;94.30;;;;;;5487976;26;20209;-75
2024/04/12 13:59:44;;;;;;;5.85;3.17;;;24.90;93.50;;;;;;5509207;25;20229;-75
2024/04/12 14:02:10;;;;;;;2.65;2.45;;;24.60;92.60;;;;;;5520961;26;20233;-76
2024/04/12 14:04:38;;;;;;;3.50;2.88;;;24.50;92.80;;;;;;5521898;26;20336;-76
2024/04/12 14:07:04;;;;;;;5.25;2.80;;;24.40;94.20;;;;;;5524088;25;20201;-76
2024/04/12 14:09:30;;;;;;;3.53;2.80;;;24.30;92.20;;;;;;5523728;25;20246;-76
2024/04/12 14:11:56;;;;;;;5.97;3.45;;;24.10;93.60;;;;;;5499745;26;20591;-76